Terminal Aerodrome Forecast
Issued by NWS Austin/San Antonio, TX

Home | Current Version | Previous Version | Text Only | Print | Product List | Glossary On
Versions: 1 2 3 4 5 6 7 8 9 10 11 12 13 14 15 16 17
000
FTUS44 KEWX 051739
TAFDRT
TAF
KDRT 051739Z 0518/0618 13011G17KT P6SM OVC020
     FM052100 13014KT P6SM OVC050 PROB30 0604/0606 P6SM -TSRA
      BKN050CB
     FM060600 11012KT P6SM OVC007=

USA.gov is the U.S. government's official web portal to all federal, state and local government web resources and services.